createdAt,value
2022-08-20T00:01:18.977Z,26.64
2022-08-20T00:03:53.216Z,26.51
2022-08-20T00:06:23.092Z,26.41
2022-08-20T00:08:50.998Z,26.32
2022-08-20T00:11:24.086Z,26.27
2022-08-20T00:13:56.324Z,26.25
2022-08-20T00:16:25.744Z,26.25
2022-08-20T00:18:54.336Z,26.27
2022-08-20T00:21:23.314Z,26.25
2022-08-20T00:23:55.143Z,26.20
2022-08-20T00:26:23.854Z,26.12
2022-08-20T00:28:52.663Z,26.02
2022-08-20T00:31:21.614Z,25.98
2022-08-20T00:33:50.146Z,25.96
2022-08-20T00:36:18.802Z,25.98
2022-08-20T00:38:47.610Z,26.00
2022-08-20T00:41:19.200Z,25.97
2022-08-20T00:43:46.902Z,25.94
2022-08-20T00:46:18.634Z,25.93
2022-08-20T00:48:48.876Z,25.88
2022-08-20T00:51:32.584Z,25.78
2022-08-20T00:54:07.111Z,25.71
2022-08-20T00:56:35.505Z,25.66
2022-08-20T00:59:05.486Z,25.66
2022-08-20T01:01:40.654Z,25.66
2022-08-20T01:04:25.384Z,25.65
2022-08-20T01:06:53.792Z,25.66
2022-08-20T01:09:49.628Z,25.67
2022-08-20T01:12:10.006Z,25.69
2022-08-20T01:14:37.886Z,25.70
2022-08-20T01:17:07.799Z,25.71
2022-08-20T01:19:38.840Z,25.72
2022-08-20T01:22:27.482Z,25.70
2022-08-20T01:25:02.120Z,25.68
2022-08-20T01:27:30.935Z,25.67
2022-08-20T01:30:06.209Z,25.67
2022-08-20T01:32:36.093Z,25.67
2022-08-20T01:35:04.842Z,25.68
2022-08-20T01:37:32.999Z,25.64
2022-08-20T01:40:02.212Z,25.57
2022-08-20T01:42:52.830Z,25.52
2022-08-20T01:45:30.357Z,25.50
2022-08-20T01:47:59.321Z,25.46
2022-08-20T01:50:28.980Z,25.36
2022-08-20T01:53:00.315Z,25.31
2022-08-20T01:55:28.743Z,25.31
2022-08-20T01:57:57.950Z,25.27
2022-08-20T02:00:26.979Z,25.23
2022-08-20T02:02:54.990Z,25.18
2022-08-20T02:05:24.540Z,25.17
2022-08-20T02:07:58.272Z,25.16
2022-08-20T02:10:26.490Z,25.13
2022-08-20T02:12:54.615Z,25.08
2022-08-20T02:15:34.954Z,25.06
2022-08-20T02:18:10.504Z,25.05
2022-08-20T02:20:39.292Z,25.01
2022-08-20T02:23:08.491Z,25.01
2022-08-20T02:25:38.033Z,25.00
2022-08-20T02:28:08.174Z,25.02
2022-08-20T02:30:38.856Z,25.06
2022-08-20T02:33:09.350Z,25.08
2022-08-20T02:35:38.381Z,25.06
2022-08-20T02:38:06.393Z,25.05
2022-08-20T02:40:36.212Z,25.02
2022-08-20T02:43:04.522Z,24.97
2022-08-20T02:45:43.918Z,24.91
2022-08-20T02:48:18.768Z,24.90
2022-08-20T02:50:51.648Z,24.89
2022-08-20T02:53:19.967Z,24.87
2022-08-20T02:55:48.528Z,24.85
2022-08-20T02:58:17.713Z,24.84
2022-08-20T03:00:45.897Z,24.81
2022-08-20T03:03:15.330Z,24.80
2022-08-20T03:05:44.973Z,24.79
2022-08-20T03:08:14.082Z,24.74
2022-08-20T03:10:43.008Z,24.69
2022-08-20T03:13:12.654Z,24.67
2022-08-20T03:15:42.471Z,24.65
2022-08-20T03:18:10.973Z,24.64
2022-08-20T03:20:39.242Z,24.63
2022-08-20T03:23:08.213Z,24.59
2022-08-20T03:25:36.861Z,24.56
2022-08-20T03:28:05.157Z,24.52
2022-08-20T03:30:33.098Z,24.50
2022-08-20T03:33:01.293Z,24.47
2022-08-20T03:35:30.428Z,24.44
2022-08-20T03:37:58.718Z,24.42
2022-08-20T03:40:28.402Z,24.40
2022-08-20T03:42:56.708Z,24.37
2022-08-20T03:45:25.644Z,24.36
2022-08-20T03:47:55.208Z,24.34
2022-08-20T03:50:24.588Z,24.33
2022-08-20T03:52:53.581Z,24.33
2022-08-20T03:55:22.338Z,24.30
2022-08-20T03:57:55.623Z,24.30
2022-08-20T04:00:44.004Z,24.31
2022-08-20T04:03:12.031Z,24.32
2022-08-20T04:05:41.208Z,24.31
2022-08-20T04:08:13.608Z,24.27
2022-08-20T04:10:42.206Z,24.22
2022-08-20T04:13:10.251Z,24.16
2022-08-20T04:15:38.558Z,24.07
2022-08-20T04:18:07.709Z,24.07
2022-08-20T04:20:37.597Z,24.08
2022-08-20T04:23:05.791Z,24.14
2022-08-20T04:25:35.972Z,24.20
2022-08-20T04:28:06.265Z,24.25
2022-08-20T04:30:34.497Z,24.32
2022-08-20T04:33:02.285Z,24.39
2022-08-20T04:35:30.789Z,24.47
2022-08-20T04:38:00.560Z,24.53
2022-08-20T04:40:47.890Z,24.59
2022-08-20T04:43:16.209Z,24.62
2022-08-20T04:45:45.156Z,24.70
2022-08-20T04:48:15.336Z,24.84
2022-08-20T04:50:44.766Z,24.94
2022-08-20T04:53:13.681Z,25.03
2022-08-20T04:55:43.056Z,25.17
2022-08-20T04:58:14.843Z,25.28
2022-08-20T05:00:45.572Z,25.41
2022-08-20T05:03:14.124Z,25.55
2022-08-20T05:05:42.339Z,25.67
2022-08-20T05:08:16.699Z,25.78
2022-08-20T05:10:48.827Z,25.93
2022-08-20T05:13:17.831Z,26.07
2022-08-20T05:15:48.963Z,26.18
2022-08-20T05:18:21.585Z,26.31
2022-08-20T05:20:49.870Z,26.45
2022-08-20T05:23:18.925Z,26.54
2022-08-20T05:25:49.602Z,26.68
2022-08-20T05:28:19.504Z,26.81
2022-08-20T05:30:48.433Z,27.00
2022-08-20T05:33:20.189Z,27.12
2022-08-20T05:35:49.747Z,27.24
2022-08-20T05:38:19.500Z,27.35
2022-08-20T05:40:48.394Z,27.50
2022-08-20T05:43:17.901Z,27.60
2022-08-20T05:45:46.368Z,27.70
2022-08-20T05:48:15.983Z,27.79
2022-08-20T05:50:46.324Z,27.89
2022-08-20T05:53:15.308Z,27.95
2022-08-20T05:55:44.405Z,28.06
2022-08-20T05:58:20.891Z,28.16
2022-08-20T06:00:49.545Z,28.30
2022-08-20T06:03:36.307Z,28.43
2022-08-20T06:06:06.098Z,28.58
2022-08-20T06:08:46.914Z,28.72
2022-08-20T06:11:15.228Z,28.84
2022-08-20T06:13:43.062Z,28.96
2022-08-20T06:16:11.221Z,29.08
2022-08-20T06:18:39.958Z,29.16
2022-08-20T06:21:08.253Z,29.21
2022-08-20T06:23:50.357Z,29.27
2022-08-20T06:26:29.898Z,29.27
2022-08-20T06:28:59.293Z,29.27
2022-08-20T06:31:27.870Z,29.27
2022-08-20T06:33:55.930Z,29.27
2022-08-20T06:36:25.357Z,29.27
2022-08-20T06:38:55.045Z,29.31
2022-08-20T06:41:22.872Z,29.36
2022-08-20T06:44:05.192Z,29.39
2022-08-20T06:46:33.815Z,29.40
2022-08-20T06:49:01.838Z,29.46
2022-08-20T06:51:30.157Z,29.56
2022-08-20T06:53:58.716Z,29.59
2022-08-20T06:56:26.485Z,29.61
2022-08-20T06:58:54.407Z,29.64
2022-08-20T07:01:22.182Z,29.65
2022-08-20T07:03:54.343Z,29.71
2022-08-20T07:06:26.065Z,29.74
2022-08-20T07:08:55.403Z,29.70
2022-08-20T07:11:27.671Z,29.75
2022-08-20T07:13:57.167Z,29.80
2022-08-20T07:16:25.259Z,29.88
2022-08-20T07:18:53.534Z,29.89
2022-08-20T07:21:21.925Z,29.95
2022-08-20T07:23:50.186Z,30.12
2022-08-20T07:26:18.677Z,30.24
2022-08-20T07:28:46.595Z,30.38
2022-08-20T07:31:34.866Z,30.53
2022-08-20T07:34:03.456Z,30.61
2022-08-20T07:36:32.353Z,30.74
2022-08-20T07:39:05.896Z,30.85
2022-08-20T07:41:34.709Z,30.94
2022-08-20T07:44:02.753Z,31.09
2022-08-20T07:46:31.895Z,31.21
2022-08-20T07:48:59.893Z,31.30
2022-08-20T07:51:28.684Z,31.35
2022-08-20T07:53:58.410Z,31.40
2022-08-20T07:56:27.938Z,31.45
2022-08-20T07:59:00.780Z,31.52
2022-08-20T08:01:31.005Z,31.61
2022-08-20T08:04:00.314Z,31.65
2022-08-20T08:06:31.725Z,31.71
2022-08-20T08:09:03.881Z,31.86
2022-08-20T08:11:33.470Z,32.06
2022-08-20T08:14:02.179Z,32.15
2022-08-20T08:16:32.774Z,32.22
2022-08-20T08:19:02.253Z,32.42
2022-08-20T08:21:31.113Z,32.74
2022-08-20T08:23:59.178Z,33.13
2022-08-20T08:26:29.085Z,33.34
2022-08-20T08:28:58.629Z,33.55
2022-08-20T08:31:27.117Z,33.69
2022-08-20T08:33:55.932Z,33.77
2022-08-20T08:36:26.456Z,33.89
2022-08-20T08:38:56.200Z,34.05
2022-08-20T08:41:29.817Z,34.07
2022-08-20T08:44:03.209Z,34.12
2022-08-20T08:46:32.673Z,34.23
2022-08-20T08:49:02.208Z,34.36
2022-08-20T08:51:37.407Z,34.48
2022-08-20T08:54:07.156Z,34.61
2022-08-20T08:56:35.936Z,34.67
2022-08-20T08:59:06.579Z,34.63
2022-08-20T09:01:55.392Z,34.46
2022-08-20T09:04:32.683Z,34.46
2022-08-20T09:07:02.984Z,34.52
2022-08-20T09:09:32.967Z,34.56
2022-08-20T09:12:05.899Z,34.52
2022-08-20T09:14:34.404Z,34.41
2022-08-20T09:17:02.362Z,34.32
2022-08-20T09:19:30.712Z,34.21
2022-08-20T09:21:59.133Z,34.19
2022-08-20T09:24:27.648Z,34.32
2022-08-20T09:26:55.563Z,34.47
2022-08-20T09:29:23.849Z,34.43
2022-08-20T09:31:52.051Z,34.29
2022-08-20T09:34:21.230Z,34.09
2022-08-20T09:36:49.021Z,33.96
2022-08-20T09:39:17.077Z,33.95
2022-08-20T09:41:45.564Z,34.04
2022-08-20T09:44:13.821Z,34.07
2022-08-20T09:46:41.649Z,34.11
2022-08-20T09:49:10.516Z,34.04
2022-08-20T09:51:39.510Z,34.12
2022-08-20T09:54:07.417Z,34.24
2022-08-20T09:56:36.388Z,34.10
2022-08-20T09:59:04.446Z,33.88
2022-08-20T10:01:33.388Z,33.73
2022-08-20T10:04:01.530Z,33.69
2022-08-20T10:06:29.405Z,33.71
2022-08-20T10:08:57.235Z,33.78
2022-08-20T10:11:25.206Z,33.90
2022-08-20T10:13:53.471Z,34.06
2022-08-20T10:16:21.871Z,34.22
2022-08-20T10:18:50.542Z,34.35
2022-08-20T10:21:18.411Z,34.45
2022-08-20T10:23:47.388Z,34.44
2022-08-20T10:26:15.293Z,34.39
2022-08-20T10:28:43.311Z,34.39
2022-08-20T10:31:12.533Z,34.35
2022-08-20T10:33:40.993Z,34.32
2022-08-20T10:36:10.563Z,34.26
2022-08-20T10:38:38.996Z,34.22
2022-08-20T10:41:06.799Z,34.25
2022-08-20T10:43:35.152Z,34.34
2022-08-20T10:46:03.322Z,34.43
2022-08-20T10:48:31.907Z,34.32
2022-08-20T10:50:59.817Z,34.13
2022-08-20T10:53:27.843Z,33.93
2022-08-20T10:55:55.915Z,33.53
2022-08-20T10:58:24.472Z,33.41
2022-08-20T11:00:53.106Z,33.10
2022-08-20T11:03:21.199Z,32.86
2022-08-20T11:05:49.672Z,32.67
2022-08-20T11:08:22.630Z,32.55
2022-08-20T11:11:02.948Z,32.59
2022-08-20T11:13:30.732Z,32.63
2022-08-20T11:15:58.464Z,32.40
2022-08-20T11:18:26.899Z,32.15
2022-08-20T11:20:55.754Z,32.04
2022-08-20T11:23:23.876Z,31.98
2022-08-20T11:25:52.208Z,32.02
2022-08-20T11:28:31.774Z,32.20
2022-08-20T11:31:01.961Z,32.27
2022-08-20T11:33:29.874Z,32.33
2022-08-20T11:35:57.943Z,32.22
2022-08-20T11:38:27.333Z,32.09
2022-08-20T11:40:55.328Z,31.99
2022-08-20T11:43:23.447Z,31.90
2022-08-20T11:45:54.527Z,31.88
2022-08-20T11:48:22.832Z,31.90
2022-08-20T11:50:51.995Z,31.90
2022-08-20T11:53:20.054Z,31.93
2022-08-20T11:55:49.725Z,31.97
2022-08-20T11:58:18.160Z,31.96
2022-08-20T12:00:46.128Z,31.92
2022-08-20T12:03:14.564Z,31.87
2022-08-20T12:05:43.893Z,31.91
2022-08-20T12:08:26.473Z,31.92
2022-08-20T12:11:02.628Z,31.81
2022-08-20T12:13:48.326Z,31.73
2022-08-20T12:16:18.377Z,31.57
2022-08-20T12:18:47.325Z,31.39
2022-08-20T12:21:16.107Z,31.23
2022-08-20T12:23:44.128Z,31.25
2022-08-20T12:26:12.575Z,31.14
2022-08-20T12:28:41.164Z,31.09
2022-08-20T12:31:09.190Z,31.05
2022-08-20T12:33:37.489Z,30.93
2022-08-20T12:36:06.260Z,30.87
2022-08-20T12:38:34.898Z,30.82
2022-08-20T12:41:03.053Z,30.75
2022-08-20T12:43:31.948Z,30.70
2022-08-20T12:45:59.857Z,30.67
2022-08-20T12:48:28.120Z,30.69
2022-08-20T12:50:56.217Z,30.62
2022-08-20T12:53:25.008Z,30.51
2022-08-20T12:55:53.061Z,30.58
2022-08-20T12:58:21.297Z,30.57
2022-08-20T13:00:50.659Z,30.47
2022-08-20T13:03:20.528Z,30.45
2022-08-20T13:05:49.464Z,30.38
2022-08-20T13:08:19.742Z,30.46
2022-08-20T13:10:47.838Z,30.51
2022-08-20T13:13:20.075Z,30.46
2022-08-20T13:15:51.196Z,30.39
2022-08-20T13:18:19.934Z,30.41
2022-08-20T13:20:49.202Z,30.51
2022-08-20T13:23:17.436Z,30.56
2022-08-20T13:25:45.419Z,30.52
2022-08-20T13:28:13.250Z,30.40
2022-08-20T13:30:42.131Z,30.41
2022-08-20T13:33:10.738Z,30.33
2022-08-20T13:35:39.584Z,30.34
2022-08-20T13:38:07.481Z,30.29
2022-08-20T13:40:35.728Z,30.18
2022-08-20T13:43:07.040Z,30.11
2022-08-20T13:45:38.891Z,30.06
2022-08-20T13:48:09.963Z,30.12
2022-08-20T13:50:47.008Z,30.12
2022-08-20T13:53:15.986Z,30.10
2022-08-20T13:55:44.215Z,30.04
2022-08-20T13:58:11.939Z,30.06
2022-08-20T14:00:40.615Z,30.19
2022-08-20T14:03:08.953Z,30.18
2022-08-20T14:05:38.180Z,30.13
2022-08-20T14:08:08.424Z,29.98
2022-08-20T14:10:37.099Z,29.84
2022-08-20T14:13:07.029Z,29.84
2022-08-20T14:15:36.982Z,29.84
2022-08-20T14:18:05.338Z,29.84
2022-08-20T14:20:34.241Z,29.90
2022-08-20T14:23:02.772Z,29.92
2022-08-20T14:25:31.859Z,29.94
2022-08-20T14:28:09.539Z,29.96
2022-08-20T14:30:38.119Z,29.99
2022-08-20T14:33:06.447Z,29.99
2022-08-20T14:35:34.936Z,29.99
2022-08-20T14:38:05.331Z,29.99
2022-08-20T14:40:34.153Z,30.00
2022-08-20T14:43:03.378Z,30.01
2022-08-20T14:45:31.577Z,30.00
2022-08-20T14:47:59.893Z,29.99
2022-08-20T14:50:32.567Z,29.95
2022-08-20T14:53:01.258Z,29.87
2022-08-20T14:55:31.028Z,29.82
2022-08-20T14:57:59.552Z,29.78
2022-08-20T15:00:29.609Z,29.71
2022-08-20T15:02:57.982Z,29.61
2022-08-20T15:05:27.605Z,29.45
2022-08-20T15:07:58.607Z,29.21
2022-08-20T15:10:31.796Z,28.90
2022-08-20T15:13:00.948Z,28.60
2022-08-20T15:15:29.620Z,28.33
2022-08-20T15:18:00.417Z,28.07
2022-08-20T15:20:30.095Z,27.89
2022-08-20T15:22:58.330Z,27.71
2022-08-20T15:25:27.463Z,27.53
2022-08-20T15:28:06.003Z,27.38
2022-08-20T15:30:34.345Z,27.20
2022-08-20T15:33:02.426Z,27.03
2022-08-20T15:35:31.066Z,26.89
2022-08-20T15:37:59.420Z,26.74
2022-08-20T15:40:30.044Z,26.58
2022-08-20T15:42:59.353Z,26.43
2022-08-20T15:45:27.831Z,26.31
2022-08-20T15:48:15.849Z,26.25
2022-08-20T15:51:03.091Z,26.21
2022-08-20T15:53:39.563Z,26.16
2022-08-20T15:56:28.197Z,26.05
2022-08-20T15:59:02.017Z,25.94
2022-08-20T16:01:44.090Z,25.86
2022-08-20T16:04:30.694Z,25.82
2022-08-20T16:07:01.853Z,25.80
2022-08-20T16:09:30.139Z,25.75
2022-08-20T16:12:08.659Z,25.70
2022-08-20T16:14:42.983Z,25.63
2022-08-20T16:17:11.131Z,25.56
2022-08-20T16:19:45.517Z,25.52
2022-08-20T16:22:15.041Z,25.51
2022-08-20T16:24:43.470Z,25.50
2022-08-20T16:27:21.222Z,25.45
2022-08-20T16:29:49.511Z,25.43
2022-08-20T16:32:20.926Z,25.41
2022-08-20T16:35:10.451Z,25.43
2022-08-20T16:37:45.543Z,25.50
2022-08-20T16:40:26.574Z,25.56
2022-08-20T16:42:57.707Z,25.55
2022-08-20T16:45:30.878Z,25.47
2022-08-20T16:48:01.175Z,25.41
2022-08-20T16:50:33.990Z,25.40
2022-08-20T16:53:02.080Z,25.43
2022-08-20T16:55:30.254Z,25.44
2022-08-20T16:57:58.599Z,25.44
2022-08-20T17:00:35.745Z,25.42
2022-08-20T17:03:31.478Z,25.44
2022-08-20T17:06:01.916Z,25.47
2022-08-20T17:08:32.185Z,25.46
2022-08-20T17:11:00.329Z,25.40
2022-08-20T17:13:33.623Z,25.32
2022-08-20T17:16:01.489Z,25.27
2022-08-20T17:18:31.828Z,25.23
2022-08-20T17:21:02.059Z,25.08
2022-08-20T17:23:31.484Z,24.95
2022-08-20T17:26:01.305Z,24.87
2022-08-20T17:28:34.550Z,24.89
2022-08-20T17:31:03.633Z,24.91
2022-08-20T17:33:33.899Z,24.93
2022-08-20T17:36:08.553Z,24.95
2022-08-20T17:38:38.906Z,24.91
2022-08-20T17:41:12.779Z,24.90
2022-08-20T17:43:43.978Z,24.90
2022-08-20T17:46:16.517Z,24.87
2022-08-20T17:48:45.925Z,24.90
2022-08-20T17:51:18.479Z,24.93
2022-08-20T17:53:50.083Z,24.91
2022-08-20T17:56:24.125Z,24.91
2022-08-20T17:59:03.407Z,24.91
2022-08-20T18:01:35.005Z,24.90
2022-08-20T18:04:03.601Z,24.89
2022-08-20T18:06:45.029Z,24.87
2022-08-20T18:09:13.000Z,24.74
2022-08-20T18:12:04.204Z,24.65
2022-08-20T18:14:52.016Z,24.59
2022-08-20T18:17:41.951Z,24.51
2022-08-20T18:20:24.233Z,24.49
2022-08-20T18:22:58.326Z,24.53
2022-08-20T18:25:37.560Z,24.52
2022-08-20T18:28:23.357Z,24.56
2022-08-20T18:31:01.835Z,24.60
2022-08-20T18:33:35.421Z,24.65
2022-08-20T18:36:05.985Z,24.69
2022-08-20T18:38:37.233Z,24.72
2022-08-20T18:41:24.202Z,24.73
2022-08-20T18:44:02.660Z,24.76
2022-08-20T18:46:31.061Z,24.82
2022-08-20T18:49:00.560Z,24.87
2022-08-20T18:51:36.359Z,24.88
2022-08-20T18:54:04.745Z,24.90
2022-08-20T18:56:35.405Z,24.94
2022-08-20T18:59:03.885Z,24.94
2022-08-20T19:01:34.753Z,24.90
2022-08-20T19:04:13.539Z,24.88
2022-08-20T19:06:45.093Z,24.90
2022-08-20T19:09:32.107Z,24.92
2022-08-20T19:12:11.831Z,24.96
2022-08-20T19:14:54.633Z,24.97
2022-08-20T19:17:37.564Z,24.99
2022-08-20T19:20:09.085Z,25.01
2022-08-20T19:22:39.139Z,24.98
2022-08-20T19:25:07.758Z,24.93
2022-08-20T19:27:35.884Z,24.89
2022-08-20T19:30:04.049Z,24.84
2022-08-20T19:32:33.272Z,24.77
2022-08-20T19:35:04.338Z,24.68
2022-08-20T19:37:44.515Z,24.59
2022-08-20T19:40:24.874Z,24.49
2022-08-20T19:42:59.120Z,24.45
2022-08-20T19:45:30.137Z,24.42
2022-08-20T19:48:13.603Z,24.42
2022-08-20T19:50:54.792Z,24.40
2022-08-20T19:53:30.603Z,24.39
2022-08-20T19:55:59.479Z,24.40
2022-08-20T19:58:29.213Z,24.40
2022-08-20T20:00:58.624Z,24.40
2022-08-20T20:03:29.026Z,24.42
2022-08-20T20:06:02.436Z,24.44
2022-08-20T20:08:37.696Z,24.41
2022-08-20T20:11:06.055Z,24.35
2022-08-20T20:13:39.556Z,24.29
2022-08-20T20:16:08.533Z,24.26
2022-08-20T20:18:37.912Z,24.22
2022-08-20T20:21:11.251Z,24.21
2022-08-20T20:23:46.802Z,24.22
2022-08-20T20:26:17.158Z,24.24
2022-08-20T20:28:47.529Z,24.24
2022-08-20T20:31:28.556Z,24.27
2022-08-20T20:33:58.800Z,24.33
2022-08-20T20:36:31.985Z,24.37
2022-08-20T20:39:01.209Z,24.40
2022-08-20T20:41:29.556Z,24.40
2022-08-20T20:43:59.419Z,24.42
2022-08-20T20:46:29.256Z,24.40
2022-08-20T20:49:09.766Z,24.37
2022-08-20T20:51:40.068Z,24.32
2022-08-20T20:54:22.806Z,24.29
2022-08-20T20:57:07.273Z,24.30
2022-08-20T20:59:36.113Z,24.31
2022-08-20T21:02:04.744Z,24.30
2022-08-20T21:04:33.277Z,24.30
2022-08-20T21:07:07.519Z,24.26
2022-08-20T21:09:36.491Z,24.22
2022-08-20T21:12:05.472Z,24.19
2022-08-20T21:14:33.889Z,24.15
2022-08-20T21:17:02.927Z,24.17
2022-08-20T21:19:31.829Z,24.19
2022-08-20T21:22:00.967Z,24.20
2022-08-20T21:24:29.306Z,24.22
2022-08-20T21:26:59.044Z,24.22
2022-08-20T21:29:32.291Z,24.24
2022-08-20T21:32:01.087Z,24.23
2022-08-20T21:34:28.879Z,24.20
2022-08-20T21:36:56.851Z,24.15
2022-08-20T21:39:27.661Z,24.10
2022-08-20T21:41:57.094Z,24.06
2022-08-20T21:44:27.380Z,24.05
2022-08-20T21:46:59.016Z,24.05
2022-08-20T21:49:28.640Z,24.03
2022-08-20T21:51:57.024Z,24.02
2022-08-20T21:54:25.963Z,24.02
2022-08-20T21:56:58.300Z,24.00
2022-08-20T21:59:26.811Z,23.99
2022-08-20T22:01:55.314Z,23.95
2022-08-20T22:04:23.765Z,23.93
2022-08-20T22:06:51.612Z,23.90
2022-08-20T22:09:19.716Z,23.87
2022-08-20T22:11:53.883Z,23.86
2022-08-20T22:14:23.554Z,23.87
2022-08-20T22:16:51.780Z,23.88
2022-08-20T22:19:19.919Z,23.86
2022-08-20T22:21:49.587Z,23.86
2022-08-20T22:24:17.490Z,23.85
2022-08-20T22:26:45.546Z,23.84
2022-08-20T22:29:13.597Z,23.84
2022-08-20T22:31:42.799Z,23.83
2022-08-20T22:34:12.114Z,23.79
2022-08-20T22:36:40.577Z,23.76
2022-08-20T22:39:08.833Z,23.73
2022-08-20T22:41:36.791Z,23.72
2022-08-20T22:44:05.088Z,23.71
2022-08-20T22:46:35.884Z,23.69
2022-08-20T22:49:04.895Z,23.65
2022-08-20T22:51:35.005Z,23.62
2022-08-20T22:54:04.299Z,23.61
2022-08-20T22:56:32.317Z,23.61
2022-08-20T22:59:03.332Z,23.61
2022-08-20T23:01:31.475Z,23.58
2022-08-20T23:04:26.065Z,23.54
2022-08-20T23:06:54.879Z,23.52
2022-08-20T23:09:23.287Z,23.53
2022-08-20T23:11:52.821Z,23.51
2022-08-20T23:14:22.143Z,23.53
2022-08-20T23:16:56.705Z,23.55
2022-08-20T23:19:26.091Z,23.62
2022-08-20T23:21:53.797Z,23.65
2022-08-20T23:24:22.142Z,23.67
2022-08-20T23:26:53.320Z,23.64
2022-08-20T23:29:25.898Z,23.59
2022-08-20T23:31:57.144Z,23.55
2022-08-20T23:34:26.511Z,23.55
2022-08-20T23:36:55.789Z,23.54
2022-08-20T23:39:24.904Z,23.51
2022-08-20T23:41:53.420Z,23.50
2022-08-20T23:44:25.853Z,23.52
2022-08-20T23:46:57.238Z,23.49
2022-08-20T23:49:25.791Z,23.46
2022-08-20T23:51:53.979Z,23.45
2022-08-20T23:54:22.327Z,23.43
2022-08-20T23:56:50.465Z,23.43
2022-08-20T23:59:19.005Z,23.42
